createdAt,value
2022-08-08T00:02:03.749Z,95.20
2022-08-08T00:04:35.543Z,95.50
2022-08-08T00:07:28.907Z,95.60
2022-08-08T00:09:58.908Z,95.70
2022-08-08T00:12:33.956Z,95.70
2022-08-08T00:15:17.628Z,95.80
2022-08-08T00:18:30.380Z,96.20
2022-08-08T00:21:05.213Z,95.70
2022-08-08T00:23:51.250Z,95.70
2022-08-08T00:26:29.539Z,95.70
2022-08-08T00:29:09.167Z,96.10
2022-08-08T00:32:32.795Z,95.70
2022-08-08T00:35:18.751Z,96.00
2022-08-08T00:38:02.343Z,95.90
2022-08-08T00:41:10.898Z,95.90
2022-08-08T00:44:11.599Z,95.90
2022-08-08T00:46:57.213Z,95.90
2022-08-08T00:50:00.289Z,95.90
2022-08-08T00:53:06.695Z,96.10
2022-08-08T00:56:11.294Z,96.30
2022-08-08T00:59:05.907Z,96.40
2022-08-08T01:01:51.551Z,96.50
2022-08-08T01:04:50.731Z,96.60
2022-08-08T01:07:55.428Z,96.70
2022-08-08T01:10:52.331Z,96.90
2022-08-08T01:14:01.213Z,97.00
2022-08-08T01:16:32.396Z,96.90
2022-08-08T01:20:01.229Z,96.90
2022-08-08T01:22:41.696Z,97.20
2022-08-08T01:25:47.204Z,97.60
2022-08-08T01:28:47.120Z,98.00
2022-08-08T01:32:13.850Z,98.30
2022-08-08T01:35:11.913Z,98.40
2022-08-08T01:37:56.313Z,98.60
2022-08-08T01:41:00.517Z,98.50
2022-08-08T01:43:39.319Z,98.70
2022-08-08T01:46:15.008Z,98.50
2022-08-08T01:49:22.949Z,98.50
2022-08-08T01:52:56.284Z,98.60
2022-08-08T01:56:27.795Z,98.70
2022-08-08T01:58:39.504Z,98.80
2022-08-08T02:02:00.034Z,98.90
2022-08-08T02:05:09.415Z,99.20
2022-08-08T02:08:16.441Z,99.30
2022-08-08T02:11:23.676Z,99.40
2022-08-08T02:14:15.166Z,99.50
2022-08-08T02:17:20.256Z,99.60
2022-08-08T02:20:09.179Z,99.70
2022-08-08T02:23:07.666Z,99.90
2022-08-08T02:25:48.852Z,99.90
2022-08-08T02:28:41.758Z,99.90
2022-08-08T02:32:01.108Z,99.90
2022-08-08T02:35:08.375Z,99.90
2022-08-08T02:38:00.288Z,99.90
2022-08-08T02:41:03.292Z,99.90
2022-08-08T02:44:39.317Z,99.90
2022-08-08T02:47:51.987Z,99.90
2022-08-08T02:50:58.829Z,99.90
2022-08-08T02:53:57.649Z,99.90
2022-08-08T02:56:51.389Z,99.90
2022-08-08T03:00:26.772Z,99.90
2022-08-08T03:03:16.729Z,99.90
2022-08-08T03:06:34.395Z,99.90
2022-08-08T03:09:50.401Z,99.90
2022-08-08T03:12:36.787Z,99.90
2022-08-08T03:16:01.149Z,99.90
2022-08-08T03:18:49.956Z,99.90
2022-08-08T03:21:40.859Z,99.90
2022-08-08T03:24:11.222Z,99.90
2022-08-08T03:26:48.884Z,99.90
2022-08-08T03:29:38.240Z,99.90
2022-08-08T03:32:33.165Z,99.90
2022-08-08T03:35:05.600Z,99.90
2022-08-08T03:38:54.243Z,99.90
2022-08-08T03:40:30.562Z,99.90
2022-08-08T03:43:16.406Z,99.90
2022-08-08T03:46:05.094Z,99.90
2022-08-08T03:49:10.116Z,99.90
2022-08-08T03:51:40.026Z,99.90
2022-08-08T03:54:15.689Z,99.90
2022-08-08T03:57:00.467Z,99.90
2022-08-08T04:00:02.558Z,99.90
2022-08-08T04:03:11.199Z,99.90
2022-08-08T04:05:39.900Z,99.90
2022-08-08T04:08:33.614Z,99.90
2022-08-08T04:11:11.244Z,99.90
2022-08-08T04:14:04.462Z,99.90
2022-08-08T04:16:38.849Z,99.90
2022-08-08T04:19:23.294Z,99.90
2022-08-08T04:21:54.347Z,99.90
2022-08-08T04:24:28.739Z,99.90
2022-08-08T04:26:58.749Z,99.90
2022-08-08T04:29:26.607Z,99.90
2022-08-08T04:31:59.144Z,99.90
2022-08-08T04:34:31.809Z,99.90
2022-08-08T04:36:59.632Z,99.90
2022-08-08T04:40:04.226Z,99.90
2022-08-08T04:42:18.163Z,99.90
2022-08-08T04:44:47.702Z,99.90
2022-08-08T04:47:17.152Z,99.90
2022-08-08T04:50:00.313Z,99.90
2022-08-08T04:52:34.382Z,99.90
2022-08-08T04:55:06.447Z,99.90
2022-08-08T04:57:36.832Z,99.90
2022-08-08T05:00:07.036Z,99.90
2022-08-08T05:02:39.685Z,99.90
2022-08-08T05:05:19.942Z,99.90
2022-08-08T05:07:59.603Z,99.90
2022-08-08T05:10:30.023Z,99.90
2022-08-08T05:13:01.581Z,99.90
2022-08-08T05:16:47.929Z,99.90
2022-08-08T05:18:19.433Z,99.90
2022-08-08T05:20:50.373Z,99.90
2022-08-08T05:23:20.469Z,99.90
2022-08-08T05:25:51.918Z,99.90
2022-08-08T05:28:55.941Z,99.90
2022-08-08T05:32:02.234Z,99.90
2022-08-08T05:34:18.656Z,99.90
2022-08-08T05:36:53.453Z,99.90
2022-08-08T05:39:25.219Z,99.90
2022-08-08T05:42:00.873Z,99.90
2022-08-08T05:44:31.387Z,99.90
2022-08-08T05:47:03.279Z,99.90
2022-08-08T05:49:38.061Z,99.90
2022-08-08T05:52:09.599Z,99.90
2022-08-08T05:54:50.518Z,99.90
2022-08-08T05:57:20.870Z,99.90
2022-08-08T06:00:22.359Z,99.90
2022-08-08T06:03:13.376Z,99.90
2022-08-08T06:06:06.543Z,99.90
2022-08-08T06:08:38.052Z,99.90
2022-08-08T06:11:05.621Z,99.90
2022-08-08T06:13:36.087Z,99.90
2022-08-08T06:16:15.388Z,99.90
2022-08-08T06:18:44.614Z,99.90
2022-08-08T06:21:28.411Z,99.90
2022-08-08T06:24:03.594Z,99.90
2022-08-08T06:26:45.403Z,99.90
2022-08-08T06:29:56.565Z,99.90
2022-08-08T06:32:28.518Z,99.90
2022-08-08T06:35:30.735Z,99.90
2022-08-08T06:38:03.118Z,99.90
2022-08-08T06:40:32.113Z,99.90
2022-08-08T06:43:11.204Z,99.90
2022-08-08T06:45:40.908Z,99.90
2022-08-08T06:48:11.187Z,99.90
2022-08-08T06:50:41.798Z,99.90
2022-08-08T06:53:20.148Z,99.90
2022-08-08T06:56:02.014Z,99.80
2022-08-08T06:58:33.175Z,99.50
2022-08-08T07:01:11.796Z,99.20
2022-08-08T07:04:40.056Z,99.00
2022-08-08T07:06:51.246Z,98.80
2022-08-08T07:09:41.949Z,98.30
2022-08-08T07:12:37.485Z,98.10
2022-08-08T07:15:23.466Z,98.00
2022-08-08T07:18:35.621Z,97.70
2022-08-08T07:20:51.718Z,97.30
2022-08-08T07:23:24.348Z,96.80
2022-08-08T07:25:55.004Z,96.60
2022-08-08T07:28:31.387Z,96.30
2022-08-08T07:30:59.367Z,96.10
2022-08-08T07:33:27.147Z,95.90
2022-08-08T07:36:07.997Z,95.60
2022-08-08T07:38:39.210Z,95.20
2022-08-08T07:41:23.375Z,95.00
2022-08-08T07:43:56.424Z,95.00
2022-08-08T07:46:30.492Z,94.80
2022-08-08T07:49:01.101Z,94.60
2022-08-08T07:51:53.049Z,94.40
2022-08-08T07:55:03.725Z,94.30
2022-08-08T07:57:36.117Z,94.10
2022-08-08T08:00:16.258Z,93.50
2022-08-08T08:03:09.863Z,93.50
2022-08-08T08:05:45.200Z,93.20
2022-08-08T08:08:20.539Z,92.90
2022-08-08T08:10:56.351Z,92.80
2022-08-08T08:14:07.499Z,92.90
2022-08-08T08:16:41.055Z,92.50
2022-08-08T08:19:15.368Z,92.40
2022-08-08T08:21:56.940Z,92.10
2022-08-08T08:24:32.081Z,91.80
2022-08-08T08:27:05.367Z,91.70
2022-08-08T08:29:39.563Z,91.50
2022-08-08T08:32:24.164Z,91.40
2022-08-08T08:35:04.765Z,91.10
2022-08-08T08:37:33.508Z,91.00
2022-08-08T08:40:21.070Z,90.70
2022-08-08T08:42:53.563Z,91.00
2022-08-08T08:45:23.862Z,90.70
2022-08-08T08:47:58.393Z,90.60
2022-08-08T08:50:33.440Z,90.60
2022-08-08T08:53:54.617Z,90.60
2022-08-08T08:56:02.119Z,90.40
2022-08-08T08:58:42.853Z,90.30
2022-08-08T09:01:18.963Z,90.20
2022-08-08T09:03:51.446Z,89.20
2022-08-08T09:06:37.645Z,88.70
2022-08-08T09:09:26.727Z,87.40
2022-08-08T09:12:07.853Z,87.10
2022-08-08T09:14:35.561Z,86.80
2022-08-08T09:17:15.754Z,86.50
2022-08-08T09:22:01.643Z,86.00
2022-08-08T09:22:35.761Z,86.50
2022-08-08T09:25:05.932Z,84.80
2022-08-08T09:27:55.493Z,83.90
2022-08-08T09:30:26.957Z,83.90
2022-08-08T09:33:53.963Z,83.00
2022-08-08T09:35:50.121Z,82.90
2022-08-08T09:38:52.381Z,82.40
2022-08-08T09:42:14.953Z,81.80
2022-08-08T09:44:41.307Z,82.10
2022-08-08T09:47:26.749Z,82.10
2022-08-08T09:50:03.499Z,82.50
2022-08-08T09:52:57.680Z,81.70
2022-08-08T09:55:51.269Z,81.50
2022-08-08T09:58:25.955Z,81.40
2022-08-08T10:01:02.117Z,82.20
2022-08-08T10:03:39.698Z,80.70
2022-08-08T10:06:19.638Z,80.70
2022-08-08T10:08:57.543Z,80.50
2022-08-08T10:12:27.445Z,80.20
2022-08-08T10:14:27.665Z,80.10
2022-08-08T10:16:56.055Z,80.80
2022-08-08T10:19:45.956Z,79.80
2022-08-08T10:22:25.996Z,79.80
2022-08-08T10:25:15.832Z,80.20
2022-08-08T10:27:43.888Z,80.10
2022-08-08T10:30:16.651Z,79.80
2022-08-08T10:33:02.262Z,79.30
2022-08-08T10:36:06.844Z,79.30
2022-08-08T10:38:25.264Z,78.70
2022-08-08T10:41:00.596Z,78.70
2022-08-08T10:43:43.072Z,79.10
2022-08-08T10:46:30.357Z,79.10
2022-08-08T10:48:59.599Z,79.80
2022-08-08T10:51:47.225Z,79.50
2022-08-08T10:54:28.733Z,79.00
2022-08-08T10:57:00.295Z,79.20
2022-08-08T10:59:31.023Z,78.90
2022-08-08T11:02:00.552Z,78.70
2022-08-08T11:04:39.160Z,79.60
2022-08-08T11:07:15.034Z,79.30
2022-08-08T11:10:05.087Z,79.40
2022-08-08T11:12:46.883Z,78.80
2022-08-08T11:15:16.952Z,78.50
2022-08-08T11:17:59.908Z,78.80
2022-08-08T11:20:32.620Z,78.90
2022-08-08T11:23:06.408Z,78.70
2022-08-08T11:25:52.004Z,78.80
2022-08-08T11:28:30.416Z,77.90
2022-08-08T11:31:03.723Z,77.80
2022-08-08T11:33:53.431Z,78.50
2022-08-08T11:36:27.788Z,79.10
2022-08-08T11:38:56.950Z,78.60
2022-08-08T11:41:27.896Z,78.50
2022-08-08T11:44:03.925Z,78.30
2022-08-08T11:46:36.904Z,77.90
2022-08-08T11:49:13.921Z,78.30
2022-08-08T11:51:50.232Z,78.20
2022-08-08T11:54:33.805Z,78.10
2022-08-08T11:57:27.838Z,78.50
2022-08-08T12:00:07.497Z,78.80
2022-08-08T12:03:00.343Z,79.90
2022-08-08T12:05:38.852Z,80.60
2022-08-08T12:08:10.383Z,79.80
2022-08-08T12:10:51.097Z,80.10
2022-08-08T12:13:38.244Z,80.70
2022-08-08T12:16:16.618Z,80.10
2022-08-08T12:18:54.856Z,80.30
2022-08-08T12:22:00.707Z,81.10
2022-08-08T12:24:28.284Z,80.80
2022-08-08T12:26:59.273Z,80.00
2022-08-08T12:29:40.114Z,79.70
2022-08-08T12:32:20.175Z,78.90
2022-08-08T12:35:13.060Z,78.90
2022-08-08T12:37:48.096Z,78.70
2022-08-08T12:40:56.988Z,79.00
2022-08-08T12:43:47.888Z,79.00
2022-08-08T12:46:25.177Z,78.90
2022-08-08T12:49:25.213Z,78.50
2022-08-08T12:51:58.474Z,78.60
2022-08-08T12:54:33.444Z,78.50
2022-08-08T12:57:23.489Z,78.60
2022-08-08T13:00:04.877Z,78.30
2022-08-08T13:02:52.555Z,77.90
2022-08-08T13:05:26.003Z,78.30
2022-08-08T13:08:33.436Z,78.90
2022-08-08T13:11:05.405Z,78.70
2022-08-08T13:13:38.125Z,77.80
2022-08-08T13:16:19.159Z,77.60
2022-08-08T13:18:55.867Z,78.80
2022-08-08T13:21:55.516Z,78.90
2022-08-08T13:24:40.796Z,78.90
2022-08-08T13:27:18.009Z,78.60
2022-08-08T13:29:56.970Z,78.90
2022-08-08T13:32:26.828Z,79.40
2022-08-08T13:34:59.048Z,79.80
2022-08-08T13:38:04.671Z,79.80
2022-08-08T13:40:17.841Z,80.50
2022-08-08T13:42:56.417Z,81.00
2022-08-08T13:45:31.474Z,81.30
2022-08-08T13:48:11.501Z,81.00
2022-08-08T13:50:53.880Z,80.20
2022-08-08T13:53:31.434Z,79.00
2022-08-08T13:56:11.271Z,79.20
2022-08-08T13:58:57.513Z,80.70
2022-08-08T14:01:42.164Z,80.10
2022-08-08T14:04:27.567Z,79.80
2022-08-08T14:07:04.530Z,80.40
2022-08-08T14:10:02.874Z,79.10
2022-08-08T14:12:36.653Z,78.30
2022-08-08T14:15:07.670Z,78.10
2022-08-08T14:17:57.907Z,79.30
2022-08-08T14:20:58.029Z,78.90
2022-08-08T14:24:06.473Z,79.60
2022-08-08T14:26:28.014Z,80.30
2022-08-08T14:28:58.576Z,80.20
2022-08-08T14:32:05.684Z,79.90
2022-08-08T14:34:19.537Z,80.30
2022-08-08T14:36:54.572Z,81.20
2022-08-08T14:39:24.971Z,80.60
2022-08-08T14:42:10.139Z,80.60
2022-08-08T14:44:40.867Z,80.40
2022-08-08T14:47:21.378Z,80.80
2022-08-08T14:50:06.575Z,80.80
2022-08-08T14:52:57.210Z,81.70
2022-08-08T14:55:41.465Z,80.20
2022-08-08T14:58:16.701Z,80.60
2022-08-08T15:00:49.930Z,80.70
2022-08-08T15:03:20.151Z,80.90
2022-08-08T15:05:53.724Z,81.70
2022-08-08T15:08:35.433Z,81.80
2022-08-08T15:11:11.475Z,82.50
2022-08-08T15:14:02.053Z,81.80
2022-08-08T15:16:34.412Z,82.20
2022-08-08T15:19:05.139Z,83.40
2022-08-08T15:21:42.620Z,83.20
2022-08-08T15:24:15.867Z,83.70
2022-08-08T15:26:52.533Z,83.80
2022-08-08T15:29:24.575Z,84.40
2022-08-08T15:32:19.174Z,84.90
2022-08-08T15:34:44.016Z,85.20
2022-08-08T15:37:13.816Z,86.10
2022-08-08T15:39:42.922Z,87.30
2022-08-08T15:42:31.547Z,86.60
2022-08-08T15:45:02.718Z,86.90
2022-08-08T15:47:33.280Z,87.00
2022-08-08T15:50:04.144Z,87.10
2022-08-08T15:52:37.204Z,86.70
2022-08-08T15:55:09.460Z,89.00
2022-08-08T15:57:39.932Z,88.50
2022-08-08T16:00:27.644Z,89.80
2022-08-08T16:02:55.920Z,89.70
2022-08-08T16:05:25.134Z,90.20
2022-08-08T16:08:10.785Z,90.00
2022-08-08T16:13:05.262Z,90.60
2022-08-08T16:13:34.964Z,90.90
2022-08-08T16:16:17.426Z,90.80
2022-08-08T16:18:56.286Z,90.80
2022-08-08T16:21:30.759Z,90.50
2022-08-08T16:24:02.723Z,90.20
2022-08-08T16:26:35.038Z,90.40
2022-08-08T16:29:09.364Z,90.70
2022-08-08T16:31:48.499Z,90.50
2022-08-08T16:34:19.380Z,90.80
2022-08-08T16:36:52.765Z,90.90
2022-08-08T16:39:48.905Z,91.20
2022-08-08T16:42:17.665Z,91.30
2022-08-08T16:44:54.603Z,91.20
2022-08-08T16:47:40.530Z,91.40
2022-08-08T16:50:14.117Z,91.20
2022-08-08T16:55:00.981Z,91.30
2022-08-08T16:55:53.449Z,91.20
2022-08-08T16:58:26.616Z,91.60
2022-08-08T17:00:59.030Z,91.90
2022-08-08T17:03:59.985Z,91.70
2022-08-08T17:06:37.743Z,91.60
2022-08-08T17:09:00.287Z,92.10
2022-08-08T17:11:38.873Z,91.90
2022-08-08T17:14:19.510Z,92.20
2022-08-08T17:16:57.362Z,92.60
2022-08-08T17:19:27.540Z,92.70
2022-08-08T17:21:56.696Z,92.70
2022-08-08T17:24:27.840Z,93.20
2022-08-08T17:26:57.925Z,93.10
2022-08-08T17:29:36.184Z,93.30
2022-08-08T17:32:05.875Z,93.80
2022-08-08T17:35:04.393Z,93.80
2022-08-08T17:37:25.204Z,94.30
2022-08-08T17:40:06.268Z,94.70
2022-08-08T17:42:39.591Z,94.70
2022-08-08T17:45:14.339Z,95.40
2022-08-08T17:47:56.694Z,95.30
2022-08-08T17:50:29.576Z,96.10
2022-08-08T17:52:57.518Z,95.80
2022-08-08T17:56:05.526Z,95.90
2022-08-08T17:58:17.961Z,95.90
2022-08-08T18:00:56.177Z,96.00
2022-08-08T18:03:25.422Z,95.80
2022-08-08T18:05:55.579Z,96.30
2022-08-08T18:08:41.174Z,96.80
2022-08-08T18:11:16.585Z,96.80
2022-08-08T18:13:46.039Z,97.20
2022-08-08T18:16:20.249Z,97.00
2022-08-08T18:18:56.641Z,97.30
2022-08-08T18:21:58.833Z,97.40
2022-08-08T18:24:21.605Z,97.50
2022-08-08T18:26:55.879Z,97.50
2022-08-08T18:29:33.934Z,97.70
2022-08-08T18:32:17.748Z,98.10
2022-08-08T18:34:50.056Z,98.20
2022-08-08T18:37:17.830Z,98.50
2022-08-08T18:40:01.815Z,98.90
2022-08-08T18:42:28.836Z,99.20
2022-08-08T18:44:57.792Z,99.60
2022-08-08T18:47:26.683Z,99.70
2022-08-08T18:49:59.939Z,99.80
2022-08-08T18:52:29.922Z,99.90
2022-08-08T18:55:09.467Z,99.90
2022-08-08T18:57:44.545Z,99.90
2022-08-08T19:00:20.317Z,99.90
2022-08-08T19:02:55.826Z,99.90
2022-08-08T19:05:32.278Z,99.90
2022-08-08T19:08:10.264Z,99.90
2022-08-08T19:10:54.597Z,99.90
2022-08-08T19:13:24.531Z,99.90
2022-08-08T19:15:55.806Z,99.90
2022-08-08T19:18:32.495Z,99.90
2022-08-08T19:21:22.971Z,99.90
2022-08-08T19:23:57.468Z,99.90
2022-08-08T19:26:30.789Z,99.90
2022-08-08T19:29:01.661Z,99.90
2022-08-08T19:31:31.006Z,99.90
2022-08-08T19:34:29.518Z,99.90
2022-08-08T19:36:48.211Z,99.90
2022-08-08T19:39:19.399Z,99.90
2022-08-08T19:41:48.668Z,99.90
2022-08-08T19:44:43.123Z,99.90
2022-08-08T19:47:09.636Z,99.90
2022-08-08T19:49:43.494Z,99.90
2022-08-08T19:52:37.214Z,99.90
2022-08-08T19:55:14.536Z,99.90
2022-08-08T19:57:47.418Z,99.90
2022-08-08T20:00:30.627Z,99.90
2022-08-08T20:03:14.987Z,99.90
2022-08-08T20:06:14.054Z,99.90
2022-08-08T20:08:48.353Z,99.90
2022-08-08T20:11:22.066Z,99.90
2022-08-08T20:14:32.284Z,99.90
2022-08-08T20:16:41.146Z,99.90
2022-08-08T20:19:09.590Z,99.90
2022-08-08T20:21:38.260Z,99.90
2022-08-08T20:24:11.566Z,99.90
2022-08-08T20:26:47.228Z,99.90
2022-08-08T20:29:18.294Z,99.90
2022-08-08T20:32:02.742Z,99.90
2022-08-08T20:34:36.514Z,99.90
2022-08-08T20:37:09.152Z,99.90
2022-08-08T20:39:51.001Z,99.90
2022-08-08T20:42:23.780Z,99.90
2022-08-08T20:44:57.832Z,99.90
2022-08-08T20:47:25.930Z,99.90
2022-08-08T20:49:54.583Z,99.90
2022-08-08T20:52:26.209Z,99.90
2022-08-08T20:54:53.308Z,99.90
2022-08-08T20:57:21.275Z,99.90
2022-08-08T20:59:49.793Z,99.90
2022-08-08T21:02:25.467Z,99.90
2022-08-08T21:05:01.118Z,99.90
2022-08-08T21:08:33.480Z,99.90
2022-08-08T21:10:21.550Z,99.90
2022-08-08T21:12:56.460Z,99.90
2022-08-08T21:16:04.143Z,99.90
2022-08-08T21:18:14.559Z,99.90
2022-08-08T21:20:42.817Z,99.90
2022-08-08T21:23:19.200Z,99.90
2022-08-08T21:25:54.791Z,99.90
2022-08-08T21:28:35.465Z,99.90
2022-08-08T21:31:23.312Z,99.90
2022-08-08T21:33:53.514Z,99.90
2022-08-08T21:36:28.443Z,99.90
2022-08-08T21:39:04.454Z,99.90
2022-08-08T21:41:42.822Z,99.90
2022-08-08T21:44:20.130Z,99.90
2022-08-08T21:48:05.673Z,99.90
2022-08-08T21:49:34.397Z,99.90
2022-08-08T21:54:33.967Z,99.90
2022-08-08T21:55:01.801Z,99.90
2022-08-08T21:57:42.473Z,99.90
2022-08-08T22:00:14.355Z,99.90
2022-08-08T22:02:45.725Z,99.90
2022-08-08T22:05:14.884Z,99.90
2022-08-08T22:07:48.463Z,99.90
2022-08-08T22:10:28.580Z,99.90
2022-08-08T22:13:18.848Z,99.90
2022-08-08T22:15:59.793Z,99.90
2022-08-08T22:18:32.759Z,99.90
2022-08-08T22:21:14.670Z,99.90
2022-08-08T22:23:53.524Z,99.90
2022-08-08T22:26:29.091Z,99.90
2022-08-08T22:29:15.139Z,99.90
2022-08-08T22:32:02.366Z,99.90
2022-08-08T22:34:39.918Z,99.90
2022-08-08T22:37:28.218Z,99.90
2022-08-08T22:40:01.171Z,99.90
2022-08-08T22:42:34.549Z,99.90
2022-08-08T22:45:12.419Z,99.90
2022-08-08T22:47:49.092Z,99.90
2022-08-08T22:50:26.859Z,99.90
2022-08-08T22:54:33.192Z,99.90
2022-08-08T22:55:57.890Z,99.90
2022-08-08T22:58:34.722Z,99.90
2022-08-08T23:01:16.591Z,99.90
2022-08-08T23:03:57.894Z,99.90
2022-08-08T23:06:27.335Z,99.90
2022-08-08T23:09:00.199Z,99.90
2022-08-08T23:11:30.969Z,99.90
2022-08-08T23:14:21.059Z,99.90
2022-08-08T23:16:57.499Z,99.90
2022-08-08T23:19:25.284Z,99.90
2022-08-08T23:21:52.546Z,99.90
2022-08-08T23:24:23.028Z,99.90
2022-08-08T23:26:53.263Z,99.90
2022-08-08T23:29:29.908Z,99.90
2022-08-08T23:31:59.353Z,99.90
2022-08-08T23:34:29.271Z,99.90
2022-08-08T23:37:00.835Z,99.90
2022-08-08T23:39:41.824Z,99.90
2022-08-08T23:42:25.354Z,99.90
2022-08-08T23:44:54.786Z,99.90
2022-08-08T23:49:03.736Z,99.90
2022-08-08T23:50:29.841Z,99.90
2022-08-08T23:53:03.517Z,99.90
2022-08-08T23:55:42.026Z,99.90
2022-08-08T23:58:09.360Z,99.90
